createdAt,value
2017-01-23T00:00:03.029Z,0
2017-01-23T00:01:03.058Z,0
2017-01-23T00:02:03.200Z,0
2017-01-23T00:03:03.231Z,0
2017-01-23T00:04:03.197Z,0
2017-01-23T00:05:03.250Z,0
2017-01-23T00:06:03.050Z,0
2017-01-23T00:07:03.011Z,0
2017-01-23T00:08:03.180Z,0
2017-01-23T00:09:03.194Z,0
2017-01-23T00:10:03.136Z,0
2017-01-23T00:11:03.039Z,0
2017-01-23T00:12:03.178Z,0
2017-01-23T00:13:02.992Z,0
2017-01-23T00:14:03.044Z,0
2017-01-23T00:15:03.040Z,0
2017-01-23T00:16:03.270Z,0
2017-01-23T00:17:03.251Z,0
2017-01-23T00:18:03.118Z,0
2017-01-23T00:19:02.967Z,0
2017-01-23T00:20:03.070Z,0
2017-01-23T00:21:03.003Z,0
2017-01-23T00:22:03.066Z,0
2017-01-23T00:23:03.157Z,0
2017-01-23T00:24:02.983Z,0
2017-01-23T00:25:03.048Z,0
2017-01-23T00:26:02.954Z,0
2017-01-23T00:27:03.046Z,0
2017-01-23T00:28:03.099Z,0
2017-01-23T00:29:03.004Z,0
2017-01-23T00:30:03.148Z,0
2017-01-23T00:31:02.962Z,0
2017-01-23T00:32:03.083Z,0
2017-01-23T00:33:03.048Z,0
2017-01-23T00:34:02.980Z,0
2017-01-23T00:35:02.979Z,0
2017-01-23T00:36:03.175Z,0
2017-01-23T00:37:03.238Z,0
2017-01-23T00:38:03.004Z,0
2017-01-23T00:39:02.964Z,0
2017-01-23T00:40:03.389Z,0
2017-01-23T00:41:03.077Z,0
2017-01-23T00:42:03.007Z,0
2017-01-23T00:43:02.971Z,0
2017-01-23T00:44:03.276Z,0
2017-01-23T00:45:03.172Z,0
2017-01-23T00:46:03.087Z,0
2017-01-23T00:47:02.982Z,0
2017-01-23T00:48:03.122Z,0
2017-01-23T00:49:03.118Z,0
2017-01-23T00:50:03.328Z,0
2017-01-23T00:51:03.236Z,0
2017-01-23T00:52:03.054Z,0
2017-01-23T00:53:03.020Z,0
2017-01-23T00:54:03.093Z,0
2017-01-23T00:55:03.080Z,0
2017-01-23T00:56:03.042Z,0
2017-01-23T00:57:03.059Z,0
2017-01-23T00:58:03.031Z,0
2017-01-23T00:59:03.153Z,0
2017-01-23T01:00:03.085Z,0
2017-01-23T01:01:02.989Z,0
2017-01-23T01:02:02.984Z,0
2017-01-23T01:03:02.962Z,0
2017-01-23T01:04:03.088Z,0
2017-01-23T01:05:03.001Z,0
2017-01-23T01:06:03.078Z,0
2017-01-23T01:07:02.990Z,0
2017-01-23T01:08:03.132Z,0
2017-01-23T01:09:03.043Z,0
2017-01-23T01:10:03.070Z,0
2017-01-23T01:11:02.996Z,0
2017-01-23T01:12:03.208Z,0
2017-01-23T01:13:03.230Z,0
2017-01-23T01:14:02.986Z,0
2017-01-23T01:15:02.999Z,0
2017-01-23T01:16:02.978Z,0
2017-01-23T01:17:02.975Z,0
2017-01-23T01:18:03.024Z,0
2017-01-23T01:19:02.973Z,0
2017-01-23T01:20:02.989Z,0
2017-01-23T01:21:03.152Z,0
2017-01-23T01:22:03.002Z,0
2017-01-23T01:23:02.984Z,0
2017-01-23T01:24:02.976Z,0
2017-01-23T01:25:02.985Z,0
2017-01-23T01:26:03.003Z,0
2017-01-23T01:27:02.998Z,0
2017-01-23T01:28:02.986Z,0
2017-01-23T01:29:03.126Z,0
2017-01-23T01:30:02.971Z,0
2017-01-23T01:31:03.107Z,0
2017-01-23T01:32:03.296Z,0
2017-01-23T01:33:03.125Z,0
2017-01-23T01:34:03.044Z,0
2017-01-23T01:35:03.039Z,0
2017-01-23T01:36:03.001Z,0
2017-01-23T01:37:03.034Z,0
2017-01-23T01:38:02.999Z,0
2017-01-23T01:39:03.081Z,0
2017-01-23T01:40:03.002Z,0
2017-01-23T01:41:03.098Z,0
2017-01-23T01:42:03.016Z,0
2017-01-23T01:43:02.992Z,0
2017-01-23T01:44:03.022Z,0
2017-01-23T01:45:03.109Z,0
2017-01-23T01:46:03.149Z,0
2017-01-23T01:47:03.024Z,0
2017-01-23T01:48:03.023Z,0
2017-01-23T01:49:03.007Z,0
2017-01-23T01:50:03.023Z,0
2017-01-23T01:51:03.005Z,0
2017-01-23T01:52:03.025Z,0
2017-01-23T01:53:03.015Z,0
2017-01-23T01:54:03.098Z,0
2017-01-23T01:55:03.056Z,0
2017-01-23T01:56:03.065Z,0
2017-01-23T01:57:02.998Z,0
2017-01-23T01:58:03.023Z,0
2017-01-23T01:59:03.261Z,0
2017-01-23T02:00:03.033Z,0
2017-01-23T02:01:03.410Z,0
2017-01-23T02:02:02.997Z,0
2017-01-23T02:03:03.005Z,0
2017-01-23T02:04:03.068Z,0
2017-01-23T02:05:03.005Z,0
2017-01-23T02:06:03.020Z,0
2017-01-23T02:07:03.168Z,0
2017-01-23T02:08:03.018Z,0
2017-01-23T02:09:03.044Z,0
2017-01-23T02:10:03.012Z,0
2017-01-23T02:11:03.043Z,0
2017-01-23T02:12:03.055Z,0
2017-01-23T02:13:03.019Z,0
2017-01-23T02:14:03.068Z,0
2017-01-23T02:15:03.172Z,0
2017-01-23T02:16:03.005Z,0
2017-01-23T02:17:03.031Z,0
2017-01-23T02:18:03.047Z,0
2017-01-23T02:19:02.999Z,0
2017-01-23T02:20:03.011Z,0
2017-01-23T02:21:03.005Z,0
2017-01-23T02:22:03.066Z,0
2017-01-23T02:23:03.073Z,0
2017-01-23T02:24:03.016Z,0
2017-01-23T02:25:03.069Z,0
2017-01-23T02:26:03.055Z,0
2017-01-23T02:27:03.037Z,0
2017-01-23T02:28:03.011Z,0
2017-01-23T02:29:03.015Z,0
2017-01-23T02:30:03.027Z,0
2017-01-23T02:31:03.109Z,0
2017-01-23T02:32:03.067Z,0
2017-01-23T02:33:03.037Z,0
2017-01-23T02:34:03.032Z,0
2017-01-23T02:35:03.104Z,0
2017-01-23T02:36:03.166Z,0
2017-01-23T02:37:03.093Z,0
2017-01-23T02:38:03.026Z,0
2017-01-23T02:39:03.314Z,0
2017-01-23T02:40:03.092Z,0
2017-01-23T02:41:03.016Z,0
2017-01-23T02:42:03.045Z,0
2017-01-23T02:43:03.096Z,0
2017-01-23T02:44:03.062Z,0
2017-01-23T02:45:03.042Z,0
2017-01-23T02:46:03.051Z,0
2017-01-23T02:47:03.079Z,0
2017-01-23T02:48:03.044Z,0
2017-01-23T02:49:03.055Z,0
2017-01-23T02:50:03.133Z,0
2017-01-23T02:51:03.038Z,0
2017-01-23T02:52:03.062Z,0
2017-01-23T02:53:03.023Z,0
2017-01-23T02:54:03.203Z,0
2017-01-23T02:55:03.051Z,0
2017-01-23T02:56:03.073Z,0
2017-01-23T02:57:03.111Z,0
2017-01-23T02:58:03.157Z,0
2017-01-23T02:59:03.033Z,0
2017-01-23T03:00:03.030Z,0
2017-01-23T03:01:03.026Z,0
2017-01-23T03:02:03.059Z,0
2017-01-23T03:03:03.043Z,0
2017-01-23T03:04:03.083Z,0
2017-01-23T03:05:03.112Z,0
2017-01-23T03:06:03.075Z,0
2017-01-23T03:07:03.043Z,0
2017-01-23T03:08:03.045Z,0
2017-01-23T03:09:03.027Z,0
2017-01-23T03:10:03.048Z,0
2017-01-23T03:11:03.066Z,0
2017-01-23T03:12:03.072Z,0
2017-01-23T03:13:03.037Z,0
2017-01-23T03:14:03.130Z,0
2017-01-23T03:15:03.033Z,0
2017-01-23T03:16:03.072Z,0
2017-01-23T03:17:03.074Z,0
2017-01-23T03:18:03.056Z,0
2017-01-23T03:19:03.041Z,0
2017-01-23T03:20:03.055Z,0
2017-01-23T03:21:03.047Z,0
2017-01-23T03:22:03.053Z,0
2017-01-23T03:23:03.045Z,0
2017-01-23T03:24:03.060Z,0
2017-01-23T03:25:03.048Z,0
2017-01-23T03:26:03.111Z,0
2017-01-23T03:27:03.064Z,0
2017-01-23T03:28:03.042Z,0
2017-01-23T03:29:03.038Z,0
2017-01-23T03:30:03.069Z,0
2017-01-23T03:31:03.047Z,0
2017-01-23T03:32:03.068Z,0
2017-01-23T03:33:03.074Z,0
2017-01-23T03:34:03.137Z,0
2017-01-23T03:35:03.062Z,0
2017-01-23T03:36:03.096Z,0
2017-01-23T03:37:03.069Z,0
2017-01-23T03:38:03.061Z,0
2017-01-23T03:39:03.068Z,0
2017-01-23T03:40:03.064Z,0
2017-01-23T03:41:03.085Z,0
2017-01-23T03:42:03.062Z,0
2017-01-23T03:43:03.070Z,0
2017-01-23T03:44:03.072Z,0
2017-01-23T03:45:03.074Z,0
2017-01-23T03:46:03.060Z,0
2017-01-23T03:47:03.071Z,0
2017-01-23T03:48:03.049Z,0
2017-01-23T03:49:03.068Z,0
2017-01-23T03:50:03.084Z,0
2017-01-23T03:51:03.076Z,0
2017-01-23T03:52:03.092Z,0
2017-01-23T03:53:03.062Z,0
2017-01-23T03:54:03.074Z,0
2017-01-23T03:55:03.075Z,0
2017-01-23T03:56:03.076Z,0
2017-01-23T03:57:03.107Z,0
2017-01-23T03:58:03.071Z,0
2017-01-23T03:59:03.064Z,0
2017-01-23T04:00:03.072Z,0
2017-01-23T04:01:03.101Z,0
2017-01-23T04:02:03.069Z,0
2017-01-23T04:03:03.071Z,0
2017-01-23T04:04:03.063Z,0
2017-01-23T04:05:03.077Z,0
2017-01-23T04:06:03.083Z,0
2017-01-23T04:07:03.069Z,0
2017-01-23T04:08:03.111Z,0
2017-01-23T04:09:03.111Z,0
2017-01-23T04:10:03.080Z,0
2017-01-23T04:11:03.053Z,0
2017-01-23T04:12:03.089Z,0
2017-01-23T04:13:03.084Z,0
2017-01-23T04:14:03.083Z,0
2017-01-23T04:15:03.081Z,0
2017-01-23T04:16:03.103Z,0
2017-01-23T04:17:03.081Z,0
2017-01-23T04:18:03.076Z,0
2017-01-23T04:19:03.077Z,0
2017-01-23T04:20:03.089Z,0
2017-01-23T04:21:03.093Z,0
2017-01-23T04:22:03.092Z,0
2017-01-23T04:23:03.078Z,0
2017-01-23T04:24:03.086Z,0
2017-01-23T04:25:03.088Z,0
2017-01-23T04:26:03.089Z,0
2017-01-23T04:27:03.112Z,0
2017-01-23T04:28:03.079Z,0
2017-01-23T04:29:03.095Z,0
2017-01-23T04:30:03.088Z,0
2017-01-23T04:31:03.099Z,0
2017-01-23T04:32:03.181Z,0
2017-01-23T04:33:03.084Z,0
2017-01-23T04:34:03.091Z,0
2017-01-23T04:35:03.085Z,0
2017-01-23T04:36:03.107Z,0
2017-01-23T04:37:03.100Z,0
2017-01-23T04:38:03.097Z,0
2017-01-23T04:39:03.103Z,0
2017-01-23T04:40:03.120Z,0
2017-01-23T04:41:03.099Z,0
2017-01-23T04:42:03.105Z,0
2017-01-23T04:43:03.100Z,0
2017-01-23T04:44:03.112Z,0
2017-01-23T04:45:03.160Z,0
2017-01-23T04:46:03.103Z,0
2017-01-23T04:47:03.119Z,0
2017-01-23T04:48:03.136Z,0
2017-01-23T04:49:03.125Z,0
2017-01-23T04:50:03.143Z,0
2017-01-23T04:51:03.163Z,0
2017-01-23T04:52:03.134Z,0
2017-01-23T04:53:03.124Z,0
2017-01-23T04:54:03.145Z,0
2017-01-23T04:55:03.168Z,0
2017-01-23T04:56:03.117Z,0
2017-01-23T04:57:03.156Z,0
2017-01-23T04:58:03.144Z,0
2017-01-23T04:59:03.142Z,0
2017-01-23T05:00:03.159Z,0
2017-01-23T05:01:03.170Z,0
2017-01-23T05:02:03.161Z,0
2017-01-23T05:03:03.147Z,0
2017-01-23T05:04:03.152Z,0
2017-01-23T05:05:03.125Z,0
2017-01-23T05:06:03.110Z,0
2017-01-23T05:07:03.098Z,0
2017-01-23T05:08:03.117Z,0
2017-01-23T05:09:03.100Z,0
2017-01-23T05:10:03.135Z,0
2017-01-23T05:11:03.098Z,0
2017-01-23T05:12:03.112Z,0
2017-01-23T05:13:03.129Z,0
2017-01-23T05:14:03.132Z,0
2017-01-23T05:15:03.109Z,0
2017-01-23T05:16:03.144Z,0
2017-01-23T05:17:03.108Z,0
2017-01-23T05:18:03.114Z,0
2017-01-23T05:19:03.103Z,0
2017-01-23T05:20:03.114Z,0
2017-01-23T05:21:03.137Z,0
2017-01-23T05:22:03.146Z,0
2017-01-23T05:23:03.117Z,0
2017-01-23T05:24:03.141Z,0
2017-01-23T05:25:03.120Z,0
2017-01-23T05:26:03.126Z,0
2017-01-23T05:27:03.205Z,0
2017-01-23T05:28:03.149Z,0
2017-01-23T05:29:03.118Z,0
2017-01-23T05:30:03.152Z,0
2017-01-23T05:31:03.149Z,0
2017-01-23T05:32:03.141Z,0
2017-01-23T05:33:03.135Z,0
2017-01-23T05:34:03.151Z,0
2017-01-23T05:35:03.143Z,0
2017-01-23T05:36:03.194Z,0
2017-01-23T05:37:03.128Z,0
2017-01-23T05:38:03.178Z,0
2017-01-23T05:39:03.144Z,0
2017-01-23T05:40:03.123Z,0
2017-01-23T05:41:03.117Z,0
2017-01-23T05:42:03.128Z,0
2017-01-23T05:43:03.127Z,0
2017-01-23T05:44:03.136Z,0
2017-01-23T05:45:03.131Z,0
2017-01-23T05:46:03.176Z,0
2017-01-23T05:47:03.153Z,0
2017-01-23T05:48:03.139Z,0
2017-01-23T05:49:03.139Z,0
2017-01-23T05:50:03.127Z,0
2017-01-23T05:51:03.157Z,0
2017-01-23T05:52:03.122Z,0
2017-01-23T05:53:03.132Z,0
2017-01-23T05:54:03.142Z,0
2017-01-23T05:55:03.143Z,0
2017-01-23T05:56:03.160Z,0
2017-01-23T05:57:03.162Z,0
2017-01-23T05:58:03.177Z,0
2017-01-23T05:59:03.139Z,0
2017-01-23T06:00:03.148Z,0
2017-01-23T06:01:03.154Z,0
2017-01-23T06:02:03.163Z,0
2017-01-23T06:03:03.129Z,0
2017-01-23T06:04:03.147Z,0
2017-01-23T06:05:03.142Z,0
2017-01-23T06:06:03.163Z,0
2017-01-23T06:07:03.175Z,0
2017-01-23T06:08:03.185Z,0
2017-01-23T06:09:03.145Z,0
2017-01-23T06:10:03.166Z,0
2017-01-23T06:11:03.155Z,0
2017-01-23T06:12:03.161Z,0
2017-01-23T06:13:03.163Z,0
2017-01-23T06:14:03.202Z,0
2017-01-23T06:15:03.161Z,0
2017-01-23T06:16:03.173Z,0
2017-01-23T06:17:03.159Z,0
2017-01-23T06:18:03.158Z,0
2017-01-23T06:19:03.163Z,0
2017-01-23T06:20:03.189Z,0
2017-01-23T06:21:03.139Z,0
2017-01-23T06:22:03.155Z,0
2017-01-23T06:23:03.180Z,0
2017-01-23T06:24:03.192Z,0
2017-01-23T06:25:03.159Z,0
2017-01-23T06:26:03.171Z,0
2017-01-23T06:27:03.159Z,0
2017-01-23T06:28:03.175Z,0
2017-01-23T06:29:03.173Z,0
2017-01-23T06:30:03.163Z,0
2017-01-23T06:31:03.169Z,0
2017-01-23T06:32:03.161Z,0
2017-01-23T06:33:03.139Z,0
2017-01-23T06:34:03.164Z,0
2017-01-23T06:35:03.157Z,0
2017-01-23T06:36:03.242Z,0
2017-01-23T06:37:03.211Z,0
2017-01-23T06:38:03.137Z,0
2017-01-23T06:39:03.181Z,0
2017-01-23T06:40:03.193Z,0
2017-01-23T06:41:03.169Z,0
2017-01-23T06:42:03.182Z,0
2017-01-23T06:43:03.181Z,0
2017-01-23T06:44:03.160Z,0
2017-01-23T06:45:03.160Z,0
2017-01-23T06:46:03.267Z,0
2017-01-23T06:47:03.173Z,0
2017-01-23T06:48:03.175Z,0
2017-01-23T06:49:03.190Z,0
2017-01-23T06:50:03.179Z,0
2017-01-23T06:51:03.158Z,0
2017-01-23T06:52:03.157Z,0
2017-01-23T06:53:03.161Z,0
2017-01-23T06:54:03.175Z,0
2017-01-23T06:55:03.177Z,0
2017-01-23T06:56:03.189Z,0
2017-01-23T06:57:03.161Z,0
2017-01-23T06:58:03.168Z,0
2017-01-23T06:59:03.152Z,0
2017-01-23T07:00:03.167Z,0
2017-01-23T07:01:03.184Z,0
2017-01-23T07:02:03.171Z,0
2017-01-23T07:03:03.210Z,0
2017-01-23T07:04:03.208Z,0
2017-01-23T07:05:03.172Z,0
2017-01-23T07:06:03.146Z,0
2017-01-23T07:07:03.176Z,0
2017-01-23T07:08:03.154Z,0
2017-01-23T07:09:03.188Z,0
2017-01-23T07:10:03.174Z,0
2017-01-23T07:11:03.179Z,0
2017-01-23T07:12:03.186Z,0
2017-01-23T07:13:03.166Z,0
2017-01-23T07:14:03.181Z,0
2017-01-23T07:15:03.194Z,0
2017-01-23T07:16:03.195Z,0
2017-01-23T07:17:03.175Z,0
2017-01-23T07:18:03.197Z,0
2017-01-23T07:19:03.228Z,0
2017-01-23T07:20:03.225Z,0
2017-01-23T07:21:03.192Z,0
2017-01-23T07:22:03.203Z,0
2017-01-23T07:23:03.210Z,0
2017-01-23T07:24:03.203Z,0
2017-01-23T07:25:03.199Z,0
2017-01-23T07:26:03.216Z,0
2017-01-23T07:27:03.210Z,0
2017-01-23T07:28:03.193Z,5
2017-01-23T07:29:03.191Z,5
2017-01-23T07:30:03.209Z,5
2017-01-23T07:31:03.205Z,5
2017-01-23T07:32:03.213Z,5
2017-01-23T07:33:03.242Z,5
2017-01-23T07:34:03.253Z,5
2017-01-23T07:35:03.308Z,5
2017-01-23T07:36:03.250Z,5
2017-01-23T07:37:03.227Z,5
2017-01-23T07:38:03.328Z,5
2017-01-23T07:39:03.221Z,5
2017-01-23T07:40:03.224Z,5
2017-01-23T07:41:03.241Z,5
2017-01-23T07:42:03.298Z,5
2017-01-23T07:43:03.270Z,5
2017-01-23T07:44:03.193Z,5
2017-01-23T07:45:03.287Z,5
2017-01-23T07:46:03.262Z,5
2017-01-23T07:47:03.261Z,5
2017-01-23T07:48:03.606Z,10
2017-01-23T07:49:03.359Z,10
2017-01-23T07:50:03.309Z,10
2017-01-23T07:51:03.282Z,10
2017-01-23T07:52:03.270Z,10
2017-01-23T07:53:03.240Z,10
2017-01-23T07:54:03.187Z,10
2017-01-23T07:55:04.654Z,10
2017-01-23T07:56:04.476Z,10
2017-01-23T07:57:03.219Z,10
2017-01-23T07:58:03.222Z,10
2017-01-23T07:59:03.289Z,10
2017-01-23T08:00:03.238Z,10
2017-01-23T08:01:03.257Z,10
2017-01-23T08:02:03.241Z,15
2017-01-23T08:03:03.245Z,15
2017-01-23T08:04:03.330Z,15
2017-01-23T08:05:03.261Z,15
2017-01-23T08:06:03.252Z,15
2017-01-23T08:07:03.248Z,15
2017-01-23T08:08:03.276Z,15
2017-01-23T08:09:03.294Z,15
2017-01-23T08:10:03.255Z,15
2017-01-23T08:11:03.284Z,15
2017-01-23T08:12:03.403Z,15
2017-01-23T08:13:03.236Z,15
2017-01-23T08:14:03.269Z,15
2017-01-23T08:15:03.204Z,15
2017-01-23T08:16:03.278Z,15
2017-01-23T08:17:03.209Z,15
2017-01-23T08:18:03.233Z,15
2017-01-23T08:19:03.186Z,15
2017-01-23T08:20:03.246Z,15
2017-01-23T08:21:03.206Z,15
2017-01-23T08:22:03.226Z,15
2017-01-23T08:23:03.403Z,15
2017-01-23T08:24:03.226Z,15
2017-01-23T08:25:03.243Z,15
2017-01-23T08:26:03.257Z,20
2017-01-23T08:27:03.354Z,15
2017-01-23T08:28:03.233Z,15
2017-01-23T08:29:03.205Z,20
2017-01-23T08:30:03.227Z,20
2017-01-23T08:31:03.374Z,20
2017-01-23T08:32:03.341Z,25
2017-01-23T08:33:03.267Z,25
2017-01-23T08:34:03.242Z,25
2017-01-23T08:35:03.280Z,25
2017-01-23T08:36:03.228Z,25
2017-01-23T08:37:03.252Z,25
2017-01-23T08:38:03.273Z,20
2017-01-23T08:39:03.249Z,20
2017-01-23T08:40:03.243Z,20
2017-01-23T08:41:03.268Z,20
2017-01-23T08:42:03.215Z,25
2017-01-23T08:43:03.277Z,30
2017-01-23T08:44:03.242Z,35
2017-01-23T08:45:03.249Z,35
2017-01-23T08:46:03.427Z,35
2017-01-23T08:47:03.265Z,35
2017-01-23T08:48:03.288Z,35
2017-01-23T08:49:03.219Z,40
2017-01-23T08:50:03.342Z,40
2017-01-23T08:51:03.298Z,40
2017-01-23T08:52:03.239Z,40
2017-01-23T08:53:03.494Z,40
2017-01-23T08:54:03.351Z,40
2017-01-23T08:55:03.335Z,40
2017-01-23T08:56:03.311Z,45
2017-01-23T08:57:03.259Z,45
2017-01-23T08:58:03.264Z,45
2017-01-23T08:59:03.233Z,45
2017-01-23T09:00:03.256Z,45
2017-01-23T09:01:03.249Z,45
2017-01-23T09:02:03.294Z,45
2017-01-23T09:03:03.295Z,45
2017-01-23T09:04:03.314Z,45
2017-01-23T09:05:03.273Z,50
2017-01-23T09:06:03.319Z,50
2017-01-23T09:07:03.247Z,50
2017-01-23T09:08:03.279Z,45
2017-01-23T09:09:03.625Z,50
2017-01-23T09:10:03.445Z,50
2017-01-23T09:11:03.256Z,50
2017-01-23T09:12:03.280Z,50
2017-01-23T09:13:03.239Z,50
2017-01-23T09:14:03.292Z,50
2017-01-23T09:15:03.352Z,50
2017-01-23T09:16:03.321Z,50
2017-01-23T09:17:03.357Z,50
2017-01-23T09:18:03.380Z,50
2017-01-23T09:19:03.255Z,50
2017-01-23T09:20:03.248Z,50
2017-01-23T09:21:03.295Z,50
2017-01-23T09:22:03.359Z,50
2017-01-23T09:23:03.303Z,50
2017-01-23T09:24:03.298Z,55
2017-01-23T09:25:03.292Z,50
2017-01-23T09:26:03.228Z,50
2017-01-23T09:27:03.266Z,55
2017-01-23T09:28:03.278Z,55
2017-01-23T09:29:03.277Z,60
2017-01-23T09:30:03.283Z,60
2017-01-23T09:31:03.363Z,60
2017-01-23T09:32:03.251Z,60
2017-01-23T09:33:03.396Z,60
2017-01-23T09:34:03.261Z,60
2017-01-23T09:35:03.381Z,60
2017-01-23T09:36:03.273Z,60
2017-01-23T09:37:03.381Z,55
2017-01-23T09:38:03.259Z,60
2017-01-23T09:39:03.315Z,65
2017-01-23T09:40:03.278Z,70
2017-01-23T09:41:03.375Z,70
2017-01-23T09:42:03.333Z,70
2017-01-23T09:43:03.278Z,75
2017-01-23T09:44:03.274Z,75
2017-01-23T09:45:03.287Z,80
2017-01-23T09:46:03.273Z,75
2017-01-23T09:47:03.272Z,75
2017-01-23T09:48:03.276Z,70
2017-01-23T09:49:03.324Z,70
2017-01-23T09:50:03.275Z,65
2017-01-23T09:51:03.286Z,65
2017-01-23T09:52:03.354Z,60
2017-01-23T09:53:03.330Z,60
2017-01-23T09:54:03.325Z,60
2017-01-23T09:55:03.346Z,60
2017-01-23T09:56:03.262Z,60
2017-01-23T09:57:03.343Z,55
2017-01-23T09:58:03.381Z,55
2017-01-23T09:59:03.290Z,50
2017-01-23T10:00:03.330Z,50
2017-01-23T10:01:03.300Z,50
2017-01-23T10:02:03.259Z,50
2017-01-23T10:03:03.297Z,55
2017-01-23T10:04:03.303Z,60
2017-01-23T10:05:03.334Z,65
2017-01-23T10:06:03.337Z,70
2017-01-23T10:07:03.326Z,65
2017-01-23T10:08:03.293Z,65
2017-01-23T10:09:03.275Z,70
2017-01-23T10:10:03.275Z,75
2017-01-23T10:11:03.277Z,85
2017-01-23T10:12:03.291Z,85
2017-01-23T10:13:03.295Z,75
2017-01-23T10:14:03.300Z,80
2017-01-23T10:15:03.285Z,75
2017-01-23T10:22:28.604Z,90
2017-01-23T10:22:38.628Z,90
2017-01-23T10:23:38.619Z,90
2017-01-23T10:24:38.607Z,90
2017-01-23T10:25:38.603Z,90
2017-01-23T10:26:38.691Z,90
2017-01-23T10:27:38.669Z,90
2017-01-23T10:28:38.662Z,90
2017-01-23T10:29:38.646Z,90
2017-01-23T10:30:38.625Z,95
2017-01-23T10:31:38.629Z,100
2017-01-23T10:32:38.609Z,95
2017-01-23T10:33:38.642Z,95
2017-01-23T10:34:38.632Z,95
2017-01-23T10:35:38.627Z,95
2017-01-23T10:36:38.710Z,100
2017-01-23T10:37:38.627Z,115
2017-01-23T10:38:38.681Z,120
2017-01-23T10:39:38.669Z,125
2017-01-23T10:40:38.624Z,120
2017-01-23T10:41:38.620Z,115
2017-01-23T10:42:38.627Z,115
2017-01-23T10:43:38.723Z,105
2017-01-23T10:44:38.728Z,105
2017-01-23T10:45:38.629Z,105
2017-01-23T10:46:38.686Z,105
2017-01-23T10:47:38.702Z,115
2017-01-23T10:48:38.716Z,115
2017-01-23T10:49:38.634Z,110
2017-01-23T10:50:38.661Z,100
2017-01-23T10:51:38.645Z,95
2017-01-23T10:52:38.666Z,90
2017-01-23T10:53:38.620Z,90
2017-01-23T10:54:38.636Z,105
2017-01-23T10:55:38.618Z,125
2017-01-23T10:56:38.676Z,120
2017-01-23T10:57:38.625Z,110
2017-01-23T10:58:38.654Z,100
2017-01-23T10:59:38.605Z,90
2017-01-23T11:00:38.663Z,90
2017-01-23T11:01:38.641Z,105
2017-01-23T11:02:38.635Z,115
2017-01-23T11:03:38.716Z,120
2017-01-23T11:04:38.659Z,120
2017-01-23T11:05:38.728Z,115
2017-01-23T11:06:38.700Z,115
2017-01-23T11:07:38.695Z,105
2017-01-23T11:08:38.640Z,105
2017-01-23T11:09:38.653Z,105
2017-01-23T11:10:38.641Z,105
2017-01-23T11:11:38.663Z,100
2017-01-23T11:12:38.642Z,105
2017-01-23T11:13:38.681Z,100
2017-01-23T11:14:38.648Z,100
2017-01-23T11:15:38.634Z,105
2017-01-23T11:16:38.646Z,100
2017-01-23T11:17:39.571Z,105
2017-01-23T11:18:38.747Z,105
2017-01-23T11:19:38.661Z,105
2017-01-23T11:20:38.635Z,100
2017-01-23T11:21:38.647Z,100
2017-01-23T11:22:38.655Z,95
2017-01-23T11:23:38.625Z,95
2017-01-23T11:24:38.664Z,95
2017-01-23T11:25:38.650Z,95
2017-01-23T11:26:38.659Z,100
2017-01-23T11:27:38.672Z,100
2017-01-23T11:28:38.645Z,95
2017-01-23T11:29:38.658Z,90
2017-01-23T11:30:38.661Z,95
2017-01-23T11:31:38.621Z,90
2017-01-23T11:32:38.646Z,90
2017-01-23T11:33:38.682Z,95
2017-01-23T11:34:38.682Z,95
2017-01-23T11:35:38.708Z,95
2017-01-23T11:36:38.657Z,100
2017-01-23T11:37:38.679Z,75
2017-01-23T11:38:38.667Z,95
2017-01-23T11:39:38.646Z,95
2017-01-23T11:40:38.685Z,95
2017-01-23T11:41:38.643Z,90
2017-01-23T11:42:38.653Z,95
2017-01-23T11:43:38.690Z,100
2017-01-23T11:44:38.674Z,105
2017-01-23T11:45:38.644Z,100
2017-01-23T11:46:38.675Z,100
2017-01-23T11:47:38.686Z,100
2017-01-23T11:48:38.685Z,100
2017-01-23T11:49:38.663Z,95
2017-01-23T11:50:38.766Z,95
2017-01-23T11:51:38.670Z,95
2017-01-23T11:52:38.654Z,100
2017-01-23T11:53:38.678Z,100
2017-01-23T11:54:38.673Z,105
2017-01-23T11:55:38.666Z,105
2017-01-23T11:56:38.688Z,100
2017-01-23T11:57:38.685Z,100
2017-01-23T11:58:38.647Z,95
2017-01-23T11:59:38.672Z,100
2017-01-23T12:00:38.680Z,100
2017-01-23T12:01:38.666Z,100
2017-01-23T12:02:38.745Z,100
2017-01-23T12:03:38.661Z,100
2017-01-23T12:04:38.680Z,100
2017-01-23T12:05:38.699Z,100
2017-01-23T12:06:38.795Z,105
2017-01-23T12:07:38.735Z,100
2017-01-23T12:08:38.696Z,100
2017-01-23T12:09:38.691Z,95
2017-01-23T12:10:38.698Z,100
2017-01-23T12:11:38.730Z,100
2017-01-23T12:12:39.043Z,95
2017-01-23T12:13:38.705Z,105
2017-01-23T12:14:38.749Z,110
2017-01-23T12:15:38.761Z,110
2017-01-23T12:16:38.750Z,115
2017-01-23T12:17:38.688Z,120
2017-01-23T12:18:38.956Z,105
2017-01-23T12:19:38.670Z,105
2017-01-23T12:20:38.741Z,105
2017-01-23T12:21:38.680Z,105
2017-01-23T12:22:38.790Z,100
2017-01-23T12:23:38.723Z,100
2017-01-23T12:24:38.730Z,95
2017-01-23T12:25:38.697Z,85
2017-01-23T12:26:38.723Z,95
2017-01-23T12:27:38.721Z,100
2017-01-23T12:28:38.748Z,100
2017-01-23T12:29:38.814Z,100
2017-01-23T12:30:38.697Z,95
2017-01-23T12:31:38.710Z,95
2017-01-23T12:32:38.742Z,95
2017-01-23T12:33:38.691Z,95
2017-01-23T12:34:38.716Z,95
2017-01-23T12:35:38.712Z,95
2017-01-23T12:36:38.687Z,105
2017-01-23T12:37:38.720Z,100
2017-01-23T12:38:38.680Z,100
2017-01-23T12:39:38.719Z,100
2017-01-23T12:40:38.848Z,95
2017-01-23T12:41:38.684Z,90
2017-01-23T12:42:38.778Z,90
2017-01-23T12:43:38.731Z,85
2017-01-23T12:44:38.766Z,85
2017-01-23T12:45:38.822Z,80
2017-01-23T12:46:38.706Z,80
2017-01-23T12:47:38.694Z,80
2017-01-23T12:48:38.748Z,80
2017-01-23T12:49:38.799Z,75
2017-01-23T12:50:38.699Z,80
2017-01-23T12:51:38.702Z,85
2017-01-23T12:52:38.702Z,90
2017-01-23T12:53:38.853Z,90
2017-01-23T12:54:38.712Z,90
2017-01-23T12:55:38.817Z,95
2017-01-23T12:56:38.732Z,95
2017-01-23T12:57:38.705Z,90
2017-01-23T12:58:38.694Z,75
2017-01-23T12:59:38.854Z,75
2017-01-23T13:00:38.859Z,80
2017-01-23T13:01:38.804Z,85
2017-01-23T13:02:38.729Z,85
2017-01-23T13:03:39.011Z,80
2017-01-23T13:04:38.871Z,75
2017-01-23T13:05:38.918Z,80
2017-01-23T13:06:38.859Z,80
2017-01-23T13:07:38.716Z,85
2017-01-23T13:08:38.722Z,70
2017-01-23T13:09:38.837Z,65
2017-01-23T13:10:38.751Z,75
2017-01-23T13:11:38.817Z,75
2017-01-23T13:12:38.896Z,85
2017-01-23T13:13:38.743Z,90
2017-01-23T13:14:38.841Z,95
2017-01-23T13:15:38.711Z,95
2017-01-23T13:16:38.739Z,90
2017-01-23T13:17:38.793Z,90
2017-01-23T13:18:38.761Z,95
2017-01-23T13:19:38.752Z,95
2017-01-23T13:20:38.757Z,95
2017-01-23T13:21:38.745Z,95
2017-01-23T13:22:38.739Z,85
2017-01-23T13:23:38.890Z,80
2017-01-23T13:24:38.885Z,80
2017-01-23T13:25:38.776Z,85
2017-01-23T13:26:38.865Z,90
2017-01-23T13:27:38.804Z,85
2017-01-23T13:28:38.738Z,80
2017-01-23T13:29:38.864Z,75
2017-01-23T13:30:38.989Z,75
2017-01-23T13:31:38.965Z,85
2017-01-23T13:32:38.853Z,80
2017-01-23T13:33:38.849Z,85
2017-01-23T13:34:38.751Z,85
2017-01-23T13:35:38.725Z,85
2017-01-23T13:36:38.850Z,85
2017-01-23T13:37:38.824Z,80
2017-01-23T13:38:38.856Z,75
2017-01-23T13:39:38.763Z,75
2017-01-23T13:40:39.906Z,70
2017-01-23T13:41:38.765Z,70
2017-01-23T13:42:38.981Z,70
2017-01-23T13:43:39.022Z,60
2017-01-23T13:44:39.012Z,65
2017-01-23T13:45:38.751Z,70
2017-01-23T13:46:38.782Z,65
2017-01-23T13:47:38.795Z,60
2017-01-23T13:48:38.755Z,60
2017-01-23T13:49:38.880Z,65
2017-01-23T13:50:39.958Z,65
2017-01-23T13:51:38.927Z,65
2017-01-23T13:52:38.826Z,65
2017-01-23T13:53:38.744Z,60
2017-01-23T13:54:38.730Z,65
2017-01-23T13:55:39.698Z,60
2017-01-23T13:56:38.906Z,60
2017-01-23T13:57:38.906Z,60
2017-01-23T13:58:38.949Z,60
2017-01-23T13:59:38.796Z,60
2017-01-23T14:00:38.969Z,60
2017-01-23T14:01:38.875Z,65
2017-01-23T14:02:40.673Z,60
2017-01-23T14:03:38.794Z,60
2017-01-23T14:04:38.757Z,60
2017-01-23T14:05:38.856Z,60
2017-01-23T14:06:39.633Z,60
2017-01-23T14:07:38.950Z,60
2017-01-23T14:08:38.917Z,60
2017-01-23T14:09:38.772Z,60
2017-01-23T14:10:38.756Z,55
2017-01-23T14:11:38.753Z,50
2017-01-23T14:12:38.834Z,45
2017-01-23T14:13:38.922Z,45
2017-01-23T14:14:39.287Z,40
2017-01-23T14:15:38.785Z,45
2017-01-23T14:16:38.772Z,45
2017-01-23T14:17:38.935Z,45
2017-01-23T14:18:38.843Z,45
2017-01-23T14:19:38.779Z,45
2017-01-23T14:20:38.842Z,45
2017-01-23T14:21:38.856Z,50
2017-01-23T14:22:38.785Z,50
2017-01-23T14:23:38.757Z,50
2017-01-23T14:24:38.931Z,45
2017-01-23T14:25:38.764Z,45
2017-01-23T14:26:38.792Z,45
2017-01-23T14:27:38.815Z,50
2017-01-23T14:28:38.945Z,50
2017-01-23T14:29:38.890Z,50
2017-01-23T14:30:38.937Z,45
2017-01-23T14:31:38.888Z,50
2017-01-23T14:32:38.880Z,50
2017-01-23T14:33:39.279Z,50
2017-01-23T14:34:38.781Z,50